createdAt,value
2018-12-07T04:34:47.125Z,2.50
2018-12-07T04:35:14.077Z,2.30
2018-12-07T04:42:28.770Z,2.70
2018-12-07T04:43:26.457Z,2.50
2018-12-07T04:44:29.320Z,2.50
2018-12-07T04:45:30.869Z,2.60
2018-12-07T04:46:54.926Z,2.80
2018-12-07T04:47:29.519Z,2.70
2018-12-07T04:48:35.825Z,3.10
2018-12-07T04:49:31.706Z,2.80
2018-12-07T04:50:28.123Z,2.90
2018-12-07T04:51:29.846Z,3.10
2018-12-07T04:52:25.759Z,2.80
2018-12-07T04:53:27.993Z,2.90
2018-12-07T04:54:26.614Z,2.90
2018-12-07T05:03:54.382Z,2.80
2018-12-07T05:04:34.857Z,2.80
2018-12-07T05:05:12.861Z,3.00
2018-12-07T05:06:10.208Z,2.80
2018-12-07T05:07:07.802Z,2.90
2018-12-07T05:08:18.614Z,3.30
2018-12-07T05:15:38.290Z,2.70
2018-12-07T05:16:17.221Z,2.60
2018-12-07T05:17:18.261Z,2.90
2018-12-07T05:21:15.010Z,2.50
2018-12-07T05:21:54.123Z,2.50
2018-12-07T05:23:12.085Z,2.50
2018-12-07T05:26:58.541Z,2.40
2018-12-07T05:32:35.982Z,2.40
2018-12-07T05:35:29.383Z,2.20
2018-12-07T05:36:11.239Z,2.40
2018-12-07T05:37:05.572Z,2.20
2018-12-07T05:39:52.695Z,2.30
2018-12-07T05:40:59.238Z,2.20
2018-12-07T05:41:39.856Z,2.30
2018-12-07T05:42:50.572Z,2.20
2018-12-07T05:45:38.708Z,2.10
2018-12-07T05:46:30.108Z,2.00
2018-12-07T05:47:10.593Z,2.20
2018-12-07T06:22:55.001Z,1.30
2018-12-07T06:26:38.658Z,1.40
2018-12-07T06:28:45.836Z,1.20
2018-12-07T07:36:12.653Z,0.60
2018-12-07T07:38:45.911Z,0.70
2018-12-07T07:39:26.056Z,0.70
2018-12-07T07:40:24.596Z,0.90
2018-12-07T07:41:26.477Z,0.80
2018-12-07T07:42:26.494Z,0.80
2018-12-07T07:43:28.460Z,0.70
2018-12-07T07:44:31.912Z,0.80
2018-12-07T07:45:48.040Z,0.70
2018-12-07T07:46:27.527Z,0.90
2018-12-07T07:47:34.332Z,0.90
2018-12-07T07:48:47.920Z,0.80
2018-12-07T07:49:28.002Z,1.00
2018-12-07T07:50:47.217Z,1.00
2018-12-07T07:51:41.027Z,1.00
2018-12-07T07:52:27.627Z,0.90
2018-12-07T07:53:42.495Z,0.90
2018-12-07T07:54:27.500Z,0.80
2018-12-07T07:55:31.038Z,0.90
2018-12-07T07:56:29.947Z,0.70
2018-12-07T07:57:28.455Z,0.80
2018-12-07T07:58:29.655Z,0.70
2018-12-07T07:59:48.888Z,0.80
2018-12-07T08:00:28.925Z,0.80
2018-12-07T08:01:29.993Z,0.80
2018-12-07T08:02:31.962Z,0.90
2018-12-07T08:03:30.961Z,0.90
2018-12-07T08:04:39.659Z,0.90
2018-12-07T08:05:28.978Z,0.70
2018-12-07T08:06:30.966Z,0.90
2018-12-07T08:07:30.979Z,0.70
2018-12-07T08:08:29.570Z,1.00
2018-12-07T08:09:37.474Z,0.80
2018-12-07T08:10:31.524Z,0.90
2018-12-07T08:13:10.199Z,1.00
2018-12-07T08:14:08.609Z,1.10
2018-12-07T08:15:04.221Z,0.90
2018-12-07T08:16:03.994Z,1.00
2018-12-07T08:17:05.222Z,1.10
2018-12-07T08:18:06.786Z,1.00
2018-12-07T08:19:05.720Z,1.10
2018-12-07T08:20:26.321Z,1.10
2018-12-07T08:21:07.299Z,0.90
2018-12-07T08:22:05.721Z,1.10
2018-12-07T08:23:05.114Z,1.20
2018-12-07T08:24:05.779Z,1.00
2018-12-07T08:25:06.287Z,0.90
2018-12-07T08:26:06.337Z,1.10
2018-12-07T08:27:11.362Z,1.00
2018-12-07T08:28:11.839Z,1.10
2018-12-07T08:29:20.782Z,1.10
2018-12-07T17:58:04.838Z,1.70
2018-12-07T17:58:31.084Z,1.40
2018-12-07T17:59:28.780Z,1.90
2018-12-07T18:00:28.770Z,1.10
2018-12-07T19:01:48.454Z,1.20
2018-12-07T19:22:54.913Z,1.70
2018-12-07T21:44:31.619Z,0.80
